Time;durP1;ratioP1;P1;durP2;ratioP2;P2;SDS_P1;SDS_P2;PMS_P1;PMS_P2;Temp;Humidity;BMP_temperature;BMP_pressure;BME280_temperature;BME280_humidity;BME280_pressure;Samples;Min_cycle;Max_cycle;Signal;HPM_P1;HPM_P2
2023/01/20 08:41:20;;;;;;;11.80;5.57;;;2.20;99.90;;;;;;4931593;29;20603;-74
2023/01/20 08:43:47;;;;;;;13.73;6.10;;;2.20;99.90;;;;;;4932321;29;20668;-77
2023/01/20 08:46:16;;;;;;;15.27;6.37;;;2.10;99.90;;;;;;4926057;29;20229;-73
2023/01/20 08:48:44;;;;;;;20.50;6.30;;;2.10;99.90;;;;;;4915101;29;20568;-72
2023/01/20 08:51:13;;;;;;;13.30;6.53;;;2.10;99.90;;;;;;4897589;29;20221;-71
2023/01/20 08:53:41;;;;;;;14.10;6.03;;;2.10;99.90;;;;;;4914929;29;20210;-72
2023/01/20 08:56:08;;;;;;;11.33;5.30;;;2.10;99.90;;;;;;4914870;29;20225;-74
2023/01/20 08:58:37;;;;;;;12.50;5.00;;;2.10;99.90;;;;;;4906369;29;20210;-74
2023/01/20 09:01:08;;;;;;;13.57;6.13;;;2.20;99.90;;;;;;4896735;29;20234;-74
2023/01/20 09:03:35;;;;;;;17.33;6.73;;;2.20;99.90;;;;;;4896247;29;20211;-74
2023/01/20 09:06:02;;;;;;;14.43;6.33;;;2.20;99.90;;;;;;4896545;29;20237;-72
2023/01/20 09:08:29;;;;;;;15.17;6.97;;;2.30;99.90;;;;;;4896334;29;20211;-74
2023/01/20 09:11:02;;;;;;;14.10;6.00;;;2.40;99.90;;;;;;4895511;29;20211;-74
2023/01/20 09:13:28;;;;;;;18.20;7.03;;;2.40;99.90;;;;;;4914948;29;20216;-74
2023/01/20 09:15:56;;;;;;;12.57;6.43;;;2.40;99.90;;;;;;4915239;29;20243;-74
2023/01/20 09:18:23;;;;;;;8.63;5.13;;;2.60;99.90;;;;;;4914853;29;20216;-72
2023/01/20 09:20:50;;;;;;;14.53;5.93;;;2.60;99.90;;;;;;4915860;29;20237;-73
2023/01/20 09:23:17;;;;;;;15.77;6.17;;;2.70;99.90;;;;;;4915091;29;20685;-74
2023/01/20 09:25:44;;;;;;;14.67;5.83;;;2.70;99.90;;;;;;4914709;29;20229;-73
2023/01/20 09:28:12;;;;;;;8.93;4.90;;;2.60;99.90;;;;;;4915506;29;20213;-75
2023/01/20 09:30:39;;;;;;;10.40;5.17;;;2.50;99.90;;;;;;4915269;29;20205;-72
2023/01/20 09:33:07;;;;;;;15.17;5.40;;;2.50;99.90;;;;;;4902386;29;20214;-72
2023/01/20 09:35:34;;;;;;;12.63;6.27;;;2.50;99.90;;;;;;4897722;29;20237;-74
2023/01/20 09:44:08;;;;;;;9.93;4.47;;;2.70;99.90;;;;;;4920279;29;20209;-75
2023/01/20 09:47:18;;;;;;;8.60;4.80;;;2.80;99.90;;;;;;4919094;29;20233;-75
2023/01/20 09:55:26;;;;;;;11.13;5.07;;;3.00;99.90;;;;;;4917849;29;20256;-74
2023/01/20 09:57:59;;;;;;;12.37;4.93;;;3.00;99.90;;;;;;4918286;29;20205;-73
2023/01/20 10:00:30;;;;;;;15.73;5.13;;;2.90;99.90;;;;;;4918340;29;20237;-75
2023/01/20 10:03:05;;;;;;;8.67;4.73;;;3.00;99.90;;;;;;4917971;29;20214;-75
2023/01/20 10:05:37;;;;;;;10.90;4.93;;;2.90;99.90;;;;;;4912064;29;20229;-76
2023/01/20 10:08:10;;;;;;;7.53;4.23;;;2.90;99.90;;;;;;4917407;29;20292;-75
2023/01/20 10:10:42;;;;;;;10.43;4.33;;;2.90;99.90;;;;;;4917235;29;20220;-77
2023/01/20 10:13:18;;;;;;;6.53;4.00;;;2.90;99.90;;;;;;4918255;29;20209;-74
2023/01/20 10:15:48;;;;;;;12.13;4.63;;;2.90;99.90;;;;;;4932803;29;20224;-73
2023/01/20 10:18:18;;;;;;;10.57;4.90;;;2.90;99.90;;;;;;4928586;29;20213;-75
2023/01/20 10:20:53;;;;;;;10.20;4.60;;;3.00;99.90;;;;;;4917525;29;20727;-73
2023/01/20 10:23:28;;;;;;;12.13;4.27;;;3.10;99.90;;;;;;4910571;29;20210;-73
2023/01/20 10:26:04;;;;;;;10.80;4.63;;;3.00;99.90;;;;;;4932275;29;20236;-73
2023/01/20 10:28:36;;;;;;;11.30;5.13;;;3.00;99.90;;;;;;4938173;29;20209;-74
2023/01/20 10:31:04;;;;;;;11.53;4.30;;;3.00;99.90;;;;;;4937998;29;20215;-74
2023/01/20 10:33:35;;;;;;;9.30;4.30;;;3.00;99.90;;;;;;4938619;29;20215;-73
2023/01/20 10:36:04;;;;;;;9.70;5.23;;;3.20;99.90;;;;;;4921302;29;20251;-73
2023/01/20 10:38:39;;;;;;;10.73;4.37;;;3.40;99.90;;;;;;4918371;29;20541;-74
2023/01/20 10:41:14;;;;;;;12.53;4.37;;;3.50;99.90;;;;;;4899593;29;20253;-73
2023/01/20 10:43:42;;;;;;;10.57;5.23;;;3.60;99.90;;;;;;4899687;29;20218;-73
2023/01/20 10:46:23;;;;;;;8.93;4.23;;;3.80;99.90;;;;;;4935893;29;20235;-74
2023/01/20 10:49:24;;;;;;;9.17;4.13;;;3.90;99.90;;;;;;4937184;29;20687;-74
2023/01/20 10:52:04;;;;;;;11.27;4.97;;;3.90;99.90;;;;;;4937304;29;20219;-74
2023/01/20 10:54:41;;;;;;;8.43;3.87;;;3.90;99.90;;;;;;4932197;29;20205;-75
2023/01/20 10:57:13;;;;;;;10.27;4.37;;;3.90;99.90;;;;;;4918555;29;20225;-75
2023/01/20 10:59:45;;;;;;;13.13;4.03;;;3.80;99.90;;;;;;4918567;29;20206;-75
2023/01/20 11:02:17;;;;;;;9.47;4.53;;;3.70;99.90;;;;;;4918350;29;20238;-75
2023/01/20 11:04:45;;;;;;;11.27;4.10;;;3.80;99.90;;;;;;4925428;29;20201;-74
2023/01/20 11:07:17;;;;;;;8.83;3.90;;;3.90;99.90;;;;;;4937460;29;20228;-75
2023/01/20 11:09:46;;;;;;;10.27;3.77;;;4.10;99.90;;;;;;4937279;29;20672;-75
2023/01/20 11:12:16;;;;;;;5.57;3.40;;;4.10;99.90;;;;;;4937123;29;20231;-76
2023/01/20 11:14:44;;;;;;;12.13;3.77;;;4.00;99.90;;;;;;4937084;29;20213;-76
2023/01/20 11:17:15;;;;;;;13.43;3.90;;;4.00;99.90;;;;;;4937035;29;20618;-74
2023/01/20 11:19:50;;;;;;;10.47;3.57;;;4.20;99.90;;;;;;4937391;29;20205;-76
2023/01/20 11:22:30;;;;;;;8.10;3.83;;;4.20;99.90;;;;;;4937035;29;20232;-76
2023/01/20 11:24:58;;;;;;;9.70;3.73;;;4.40;99.90;;;;;;4936773;29;20208;-76
2023/01/20 11:27:28;;;;;;;11.43;3.47;;;4.60;99.90;;;;;;4933968;29;20226;-76
2023/01/20 11:29:58;;;;;;;8.33;3.67;;;4.70;99.90;;;;;;4917972;29;20217;-76
2023/01/20 11:32:32;;;;;;;11.93;3.70;;;5.00;99.90;;;;;;4917880;29;20224;-76
2023/01/20 11:35:00;;;;;;;7.50;3.53;;;5.00;99.90;;;;;;4926512;29;20663;-76
2023/01/20 11:37:36;;;;;;;6.40;3.47;;;5.20;99.90;;;;;;4936574;29;20233;-76
2023/01/20 11:40:18;;;;;;;8.10;3.33;;;5.30;99.90;;;;;;4936262;29;20675;-74
2023/01/20 11:42:46;;;;;;;6.60;3.20;;;5.40;99.90;;;;;;4936518;29;20208;-73
2023/01/20 11:45:25;;;;;;;7.60;3.07;;;5.40;99.90;;;;;;4936343;29;20212;-74
2023/01/20 11:48:04;;;;;;;8.10;2.93;;;5.40;99.90;;;;;;4936186;29;20271;-76
2023/01/20 11:50:38;;;;;;;10.80;2.70;;;5.40;99.90;;;;;;4936325;29;20215;-75
2023/01/20 11:53:23;;;;;;;5.97;2.83;;;5.40;99.90;;;;;;4936253;29;20304;-76
2023/01/20 11:55:55;;;;;;;6.43;2.80;;;5.30;99.90;;;;;;4927764;29;20228;-76
2023/01/20 11:58:24;;;;;;;8.17;3.33;;;5.30;99.90;;;;;;4916765;29;20209;-76
2023/01/20 12:00:58;;;;;;;6.57;3.03;;;5.30;99.90;;;;;;4916798;29;20243;-76
2023/01/20 12:04:09;;;;;;;4.93;2.57;;;5.00;99.90;;;;;;4918046;29;20232;-76
2023/01/20 12:06:45;;;;;;;6.37;2.80;;;4.80;99.90;;;;;;4898398;29;20238;-77
2023/01/20 12:09:18;;;;;;;4.57;3.00;;;4.80;99.90;;;;;;4898504;29;20205;-77
2023/01/20 12:11:52;;;;;;;9.53;3.30;;;4.80;99.90;;;;;;4898673;29;20210;-77
2023/01/20 12:14:24;;;;;;;6.40;3.07;;;5.00;99.90;;;;;;4901596;29;20213;-76
2023/01/20 12:17:04;;;;;;;5.83;3.03;;;5.00;99.90;;;;;;4916843;29;20595;-77
2023/01/20 12:19:38;;;;;;;8.93;2.53;;;5.00;99.90;;;;;;4916959;29;20217;-77
2023/01/20 12:22:13;;;;;;;6.00;3.00;;;5.10;99.90;;;;;;4916802;29;20237;-76
2023/01/20 12:25:08;;;;;;;9.50;3.00;;;5.20;99.90;;;;;;4916467;29;20212;-76
2023/01/20 12:27:42;;;;;;;11.87;3.00;;;5.20;99.90;;;;;;4916691;29;20201;-77
2023/01/20 12:30:19;;;;;;;5.73;2.27;;;5.20;99.90;;;;;;4916826;29;20660;-76
2023/01/20 12:32:46;;;;;;;5.57;2.50;;;5.30;99.90;;;;;;4916940;29;20296;-74
2023/01/20 12:35:14;;;;;;;7.53;2.77;;;5.30;99.90;;;;;;4927249;29;20303;-75
2023/01/20 12:37:49;;;;;;;8.60;2.93;;;5.40;99.90;;;;;;4935667;29;20209;-74
2023/01/20 12:40:26;;;;;;;5.10;2.50;;;5.60;99.90;;;;;;4935114;29;20211;-73
2023/01/20 12:43:38;;;;;;;9.97;3.00;;;5.60;99.90;;;;;;4935404;29;20236;-74
2023/01/20 12:46:32;;;;;;;8.20;2.90;;;5.60;99.90;;;;;;4918007;29;20726;-74
2023/01/20 12:49:22;;;;;;;6.10;2.77;;;5.70;99.90;;;;;;4916420;29;20304;-73
2023/01/20 12:52:06;;;;;;;12.70;3.00;;;5.80;99.90;;;;;;4916221;29;20221;-76
2023/01/20 12:54:47;;;;;;;10.03;3.03;;;5.90;99.90;;;;;;4921519;29;20215;-75
2023/01/20 12:57:25;;;;;;;6.17;2.40;;;5.70;99.90;;;;;;4935541;29;20236;-75
2023/01/20 13:00:08;;;;;;;7.23;2.67;;;5.80;99.90;;;;;;4926810;29;20205;-75
2023/01/20 13:02:56;;;;;;;3.90;2.50;;;5.90;99.90;;;;;;4916315;29;20309;-75
2023/01/20 13:05:56;;;;;;;9.03;2.60;;;6.10;99.90;;;;;;4927652;29;20217;-74
2023/01/20 13:08:36;;;;;;;7.70;2.60;;;6.20;99.90;;;;;;4935524;29;20208;-75
2023/01/20 13:11:14;;;;;;;5.70;2.40;;;6.30;99.90;;;;;;4937338;29;20212;-75
2023/01/20 13:13:59;;;;;;;6.57;2.13;;;6.30;99.90;;;;;;4939211;29;20212;-75
2023/01/20 13:16:35;;;;;;;5.87;2.70;;;6.30;99.90;;;;;;4939219;29;20232;-75
2023/01/20 13:19:10;;;;;;;6.67;2.47;;;6.40;99.90;;;;;;4901097;29;20225;-75
2023/01/20 13:21:39;;;;;;;4.30;2.00;;;6.40;99.90;;;;;;4900758;29;20229;-75
2023/01/20 13:24:17;;;;;;;12.67;2.40;;;6.50;99.90;;;;;;4904837;29;20606;-75
2023/01/20 13:26:45;;;;;;;11.00;2.23;;;6.20;99.90;;;;;;4938635;29;20813;-75
2023/01/20 13:29:23;;;;;;;6.17;2.00;;;6.00;99.90;;;;;;4938905;29;20204;-76
2023/01/20 13:31:52;;;;;;;6.10;2.20;;;5.90;99.90;;;;;;4938945;29;20218;-75
2023/01/20 13:34:35;;;;;;;6.97;2.80;;;6.00;99.90;;;;;;4939024;29;20244;-75
2023/01/20 13:37:25;;;;;;;8.33;2.47;;;6.10;99.90;;;;;;4939049;29;20232;-75
2023/01/20 13:39:54;;;;;;;7.63;2.20;;;6.30;99.90;;;;;;4938690;29;20221;-75
2023/01/20 13:42:29;;;;;;;12.03;2.20;;;6.40;99.90;;;;;;4938419;29;20240;-75
2023/01/20 13:45:21;;;;;;;5.73;2.03;;;6.50;99.90;;;;;;4934831;29;20226;-75
2023/01/20 13:47:57;;;;;;;4.53;2.20;;;6.30;99.90;;;;;;4938190;29;20216;-75
2023/01/20 13:50:26;;;;;;;6.67;2.00;;;6.20;99.90;;;;;;4938237;29;20718;-75
2023/01/20 13:53:23;;;;;;;7.57;2.53;;;6.30;99.90;;;;;;4938305;29;20212;-76
2023/01/20 13:55:56;;;;;;;5.10;2.00;;;6.40;99.90;;;;;;4933327;29;20284;-75
2023/01/20 13:58:24;;;;;;;11.50;2.20;;;6.40;99.90;;;;;;4934872;29;20240;-75
2023/01/20 14:00:53;;;;;;;6.53;2.00;;;6.70;99.90;;;;;;4920654;29;20665;-75
2023/01/20 14:03:23;;;;;;;7.53;2.50;;;6.60;99.90;;;;;;4911900;29;20237;-75
2023/01/20 14:05:51;;;;;;;3.83;1.70;;;6.60;99.90;;;;;;4929259;29;20340;-73
2023/01/20 14:08:19;;;;;;;2.90;1.77;;;6.40;99.90;;;;;;4936686;29;20211;-75
2023/01/20 14:10:46;;;;;;;4.40;1.60;;;6.50;99.90;;;;;;4927979;29;20299;-75
2023/01/20 14:13:19;;;;;;;8.13;2.17;;;6.60;99.90;;;;;;4917097;29;20224;-76
2023/01/20 14:15:50;;;;;;;5.83;1.50;;;6.50;99.90;;;;;;4932295;29;20256;-76
2023/01/20 14:18:21;;;;;;;6.60;2.57;;;6.40;99.90;;;;;;4936525;29;20200;-77
2023/01/20 14:21:04;;;;;;;7.30;2.00;;;6.40;99.90;;;;;;4937131;29;20213;-77
2023/01/20 14:23:36;;;;;;;8.13;2.80;;;6.20;99.90;;;;;;4942735;29;20247;-76
2023/01/20 14:26:09;;;;;;;4.77;2.10;;;6.00;99.90;;;;;;4922706;29;20328;-74
2023/01/20 14:28:43;;;;;;;4.07;1.90;;;6.00;99.90;;;;;;4922289;29;20209;-78
2023/01/20 14:31:15;;;;;;;3.97;2.20;;;5.90;99.90;;;;;;4920153;29;20296;-75
2023/01/20 14:33:53;;;;;;;5.07;1.90;;;5.90;99.90;;;;;;4917667;29;20206;-76
2023/01/20 14:36:22;;;;;;;6.00;2.30;;;6.00;99.90;;;;;;4898336;29;20705;-76
2023/01/20 14:38:55;;;;;;;8.87;2.30;;;6.00;99.90;;;;;;4916706;29;20569;-74
2023/01/20 14:41:46;;;;;;;5.17;2.40;;;5.90;99.90;;;;;;4917821;29;20684;-75
2023/01/20 14:44:17;;;;;;;6.00;2.00;;;5.80;99.90;;;;;;4920346;29;20632;-76
2023/01/20 14:46:46;;;;;;;4.00;1.90;;;5.80;99.90;;;;;;4936808;29;20232;-77
2023/01/20 14:49:17;;;;;;;4.33;1.80;;;5.50;99.90;;;;;;4937234;29;20236;-76
2023/01/20 14:51:46;;;;;;;6.87;2.00;;;5.50;99.90;;;;;;4937638;29;20576;-76
2023/01/20 14:54:35;;;;;;;4.70;1.73;;;5.50;99.90;;;;;;4937626;29;20616;-74
2023/01/20 14:57:12;;;;;;;6.90;2.47;;;5.60;99.90;;;;;;4937441;29;20235;-74
2023/01/20 14:59:39;;;;;;;5.63;2.20;;;5.70;99.90;;;;;;4937269;29;20209;-76
2023/01/20 15:02:16;;;;;;;2.43;1.63;;;5.70;99.90;;;;;;4937259;29;20250;-74
2023/01/20 15:04:44;;;;;;;3.87;1.33;;;5.70;99.90;;;;;;4937187;29;20204;-74
2023/01/20 15:07:17;;;;;;;4.97;1.63;;;5.70;99.90;;;;;;4937434;29;20248;-74
2023/01/20 15:09:52;;;;;;;7.40;1.90;;;5.70;99.90;;;;;;4937336;29;20212;-74
2023/01/20 15:12:39;;;;;;;2.83;1.17;;;5.60;99.90;;;;;;4937227;29;20208;-75
2023/01/20 15:15:28;;;;;;;1.50;0.90;;;5.60;99.90;;;;;;4937734;29;20212;-75
2023/01/20 15:18:15;;;;;;;4.67;1.00;;;5.70;99.90;;;;;;4934906;29;20205;-74
2023/01/20 15:20:45;;;;;;;6.60;1.10;;;5.80;99.90;;;;;;4937219;29;20208;-75
2023/01/20 15:23:17;;;;;;;3.50;1.67;;;5.80;99.90;;;;;;4936871;29;20260;-74
2023/01/20 15:25:44;;;;;;;4.40;1.20;;;5.90;99.90;;;;;;4936937;29;20236;-74
2023/01/20 15:28:24;;;;;;;5.07;0.80;;;5.90;99.90;;;;;;4937101;29;20215;-75
2023/01/20 15:30:51;;;;;;;7.47;1.20;;;5.80;99.90;;;;;;4937031;29;20287;-75
2023/01/20 15:33:20;;;;;;;1.50;1.00;;;5.60;99.90;;;;;;4936668;29;20209;-74
2023/01/20 15:35:57;;;;;;;2.10;1.07;;;5.70;99.90;;;;;;4936875;29;20700;-75
2023/01/20 15:38:25;;;;;;;3.43;1.17;;;5.70;99.90;;;;;;4936696;29;20205;-74
2023/01/20 15:40:53;;;;;;;4.97;1.37;;;5.70;99.90;;;;;;4936615;29;20654;-75
2023/01/20 15:43:20;;;;;;;1.57;1.10;;;5.80;99.90;;;;;;4936674;29;20236;-75
2023/01/20 15:45:47;;;;;;;8.47;1.30;;;5.80;99.90;;;;;;4936420;29;20260;-75
2023/01/20 15:48:16;;;;;;;6.70;0.90;;;5.80;99.90;;;;;;4936736;29;20264;-74
2023/01/20 15:50:42;;;;;;;2.37;1.30;;;5.70;99.90;;;;;;4936295;29;20208;-74
2023/01/20 15:53:11;;;;;;;2.57;1.50;;;5.70;99.90;;;;;;4937024;29;20212;-75
2023/01/20 15:55:45;;;;;;;1.73;1.13;;;5.70;99.90;;;;;;4936390;29;20239;-74
2023/01/20 15:58:27;;;;;;;2.63;0.93;;;5.50;99.90;;;;;;4936533;29;20209;-74
2023/01/20 16:00:56;;;;;;;6.80;1.27;;;5.60;99.90;;;;;;4934714;29;20205;-75
2023/01/20 16:03:23;;;;;;;3.53;1.30;;;5.60;99.90;;;;;;4936039;29;20731;-74
2023/01/20 16:05:51;;;;;;;3.30;1.17;;;5.70;99.90;;;;;;4936152;29;20586;-76
2023/01/20 16:08:22;;;;;;;3.53;1.20;;;5.70;99.90;;;;;;4936332;29;20213;-74
2023/01/20 16:10:49;;;;;;;5.70;1.20;;;5.60;99.90;;;;;;4936587;29;20211;-75
2023/01/20 16:13:16;;;;;;;5.43;1.60;;;5.60;99.90;;;;;;4936349;29;20599;-74
2023/01/20 16:15:43;;;;;;;7.30;1.90;;;5.70;99.90;;;;;;4914889;29;20249;-81
2023/01/20 16:18:13;;;;;;;6.33;2.20;;;5.80;99.90;;;;;;4913991;29;20217;-73
2023/01/20 16:20:40;;;;;;;5.50;2.03;;;5.80;99.90;;;;;;4914991;29;20213;-76
2023/01/20 16:23:11;;;;;;;2.77;1.30;;;5.80;99.90;;;;;;4915778;29;20244;-77
2023/01/20 16:25:39;;;;;;;3.27;1.40;;;5.80;99.90;;;;;;4931553;29;20236;-78
2023/01/20 16:28:13;;;;;;;3.27;0.70;;;5.70;99.90;;;;;;4934731;29;20295;-79
2023/01/20 16:30:41;;;;;;;1.87;0.70;;;5.50;99.90;;;;;;4934754;29;20271;-77
2023/01/20 16:33:16;;;;;;;1.13;0.63;;;5.30;99.90;;;;;;4925538;29;20205;-81
2023/01/20 16:35:42;;;;;;;2.80;0.93;;;5.20;99.90;;;;;;4932228;29;20312;-76
2023/01/20 16:38:12;;;;;;;1.93;0.90;;;5.10;99.90;;;;;;4934530;29;20567;-77
2023/01/20 16:40:47;;;;;;;1.17;1.00;;;5.00;99.90;;;;;;4933651;29;20224;-77
2023/01/20 16:43:14;;;;;;;2.37;1.10;;;4.60;99.90;;;;;;4934257;29;20703;-76
2023/01/20 16:45:41;;;;;;;1.07;0.87;;;4.10;99.90;;;;;;4916749;29;20317;-75
2023/01/20 16:48:08;;;;;;;1.27;1.07;;;3.80;99.90;;;;;;4914463;29;20210;-77
2023/01/20 16:50:36;;;;;;;4.43;1.17;;;3.30;99.90;;;;;;4915239;29;20272;-75
2023/01/20 16:53:03;;;;;;;2.00;1.00;;;3.40;99.90;;;;;;4915391;29;20253;-76
2023/01/20 16:55:30;;;;;;;2.60;1.50;;;3.30;99.90;;;;;;4929611;29;20604;-76
2023/01/20 16:57:58;;;;;;;1.17;0.87;;;3.30;99.90;;;;;;4933916;29;20675;-76
2023/01/20 17:00:25;;;;;;;2.13;1.33;;;3.40;99.90;;;;;;4933811;29;20219;-75
2023/01/20 17:02:52;;;;;;;2.90;1.40;;;3.60;99.90;;;;;;4933163;29;20244;-76
2023/01/20 17:05:21;;;;;;;2.20;1.23;;;3.70;99.90;;;;;;4933492;29;20205;-74
2023/01/20 17:07:49;;;;;;;1.57;1.17;;;3.80;99.90;;;;;;4934042;29;20219;-75
2023/01/20 17:10:17;;;;;;;2.43;1.20;;;3.80;99.90;;;;;;4919478;29;20214;-75
2023/01/20 17:12:44;;;;;;;2.47;1.57;;;3.90;99.90;;;;;;4914261;29;20625;-74
2023/01/20 17:15:13;;;;;;;3.23;2.07;;;3.90;99.90;;;;;;4909863;29;20223;-76
2023/01/20 17:17:40;;;;;;;2.50;1.70;;;3.90;99.90;;;;;;4914360;29;20292;-72
2023/01/20 17:20:09;;;;;;;2.23;1.37;;;3.90;99.90;;;;;;4914097;29;20209;-73
2023/01/20 17:22:37;;;;;;;3.67;2.20;;;3.90;99.90;;;;;;4904717;29;20229;-73
2023/01/20 17:25:05;;;;;;;3.73;2.03;;;3.70;99.90;;;;;;4918941;29;20223;-74
2023/01/20 17:27:32;;;;;;;2.43;1.43;;;3.60;99.90;;;;;;4933212;29;20235;-76
2023/01/20 17:29:58;;;;;;;6.70;1.73;;;3.70;99.90;;;;;;4933235;29;20223;-74
2023/01/20 17:32:27;;;;;;;3.30;1.80;;;3.70;99.90;;;;;;4933105;29;20223;-76
2023/01/20 17:34:54;;;;;;;4.43;2.60;;;3.80;99.90;;;;;;4933061;29;20577;-74
2023/01/20 17:37:21;;;;;;;6.77;3.50;;;3.80;99.90;;;;;;4933571;29;20782;-71
2023/01/20 17:39:47;;;;;;;4.70;3.07;;;3.70;99.90;;;;;;4924589;29;20217;-71
2023/01/20 17:42:15;;;;;;;5.57;3.43;;;3.70;99.90;;;;;;4913889;29;20216;-81
2023/01/20 17:44:42;;;;;;;9.97;3.70;;;3.70;99.90;;;;;;4923004;29;20262;-73
2023/01/20 17:47:08;;;;;;;7.23;4.60;;;3.70;99.90;;;;;;4932573;29;20239;-75
2023/01/20 17:49:36;;;;;;;11.43;6.47;;;3.80;99.90;;;;;;4933327;29;20231;-72
2023/01/20 17:52:03;;;;;;;7.97;5.03;;;3.70;99.90;;;;;;4933334;29;20216;-73
2023/01/20 17:54:30;;;;;;;6.37;3.93;;;3.80;99.90;;;;;;4925131;29;20214;-72
2023/01/20 17:56:57;;;;;;;9.83;4.80;;;3.80;99.90;;;;;;4915669;29;20236;-73
2023/01/20 17:59:25;;;;;;;6.33;3.77;;;3.90;99.90;;;;;;4918056;29;20568;-72
2023/01/20 18:01:53;;;;;;;9.07;3.83;;;3.70;99.90;;;;;;4917476;29;20732;-73
2023/01/20 18:04:19;;;;;;;4.73;2.90;;;3.40;99.90;;;;;;4923241;29;20240;-72
2023/01/20 18:06:48;;;;;;;4.80;2.70;;;3.20;99.90;;;;;;4934147;29;20229;-73
2023/01/20 18:09:14;;;;;;;4.00;2.50;;;3.00;99.90;;;;;;4916443;29;20217;-72
2023/01/20 18:11:43;;;;;;;4.40;2.77;;;2.80;99.90;;;;;;4917806;29;20209;-76
2023/01/20 18:14:10;;;;;;;3.40;2.07;;;2.70;99.90;;;;;;4922392;29;20224;-72
2023/01/20 18:16:40;;;;;;;4.03;2.37;;;2.70;99.90;;;;;;4936190;29;20239;-71
2023/01/20 18:19:10;;;;;;;3.93;2.23;;;2.60;99.90;;;;;;4936227;29;20215;-80
2023/01/20 18:21:37;;;;;;;2.33;1.57;;;2.60;99.90;;;;;;4936568;29;20636;-75
2023/01/20 18:24:07;;;;;;;4.47;2.40;;;2.50;99.90;;;;;;4935678;29;20707;-77
2023/01/20 18:26:37;;;;;;;3.57;1.93;;;2.50;99.90;;;;;;4936610;29;20320;-76
2023/01/20 18:29:06;;;;;;;6.73;2.50;;;2.50;99.90;;;;;;4937352;29;20213;-76
2023/01/20 18:31:33;;;;;;;7.73;2.90;;;2.60;99.90;;;;;;4936834;29;20334;-75
2023/01/20 18:34:02;;;;;;;4.60;2.30;;;2.70;99.90;;;;;;4936619;29;20248;-75
2023/01/20 18:36:30;;;;;;;3.00;1.73;;;2.80;99.90;;;;;;4936070;29;20235;-74
2023/01/20 18:38:59;;;;;;;2.93;1.90;;;3.00;99.90;;;;;;4936270;29;20392;-75
2023/01/20 18:41:28;;;;;;;2.50;1.67;;;3.10;99.90;;;;;;4936604;29;20218;-75
2023/01/20 18:43:56;;;;;;;3.87;2.00;;;3.20;99.90;;;;;;4936527;29;20603;-74
2023/01/20 18:46:23;;;;;;;4.73;2.83;;;3.30;99.90;;;;;;4935903;29;20707;-75
2023/01/20 18:48:50;;;;;;;3.43;2.40;;;3.30;99.90;;;;;;4937363;29;20217;-75
2023/01/20 18:51:19;;;;;;;1.97;1.40;;;3.40;99.90;;;;;;4937043;29;20208;-75
2023/01/20 18:53:53;;;;;;;3.63;1.70;;;3.30;99.90;;;;;;4937541;29;20560;-75
2023/01/20 18:56:19;;;;;;;2.13;1.37;;;3.20;99.90;;;;;;4937400;29;20228;-75
2023/01/20 18:58:48;;;;;;;3.00;2.00;;;2.80;99.90;;;;;;4937199;29;20215;-75
2023/01/20 19:01:18;;;;;;;2.07;1.50;;;2.60;99.90;;;;;;4937243;29;20213;-76
2023/01/20 19:03:45;;;;;;;4.93;2.50;;;2.40;99.90;;;;;;4937195;29;20240;-75
2023/01/20 19:06:14;;;;;;;3.73;2.10;;;2.40;99.90;;;;;;4937240;29;20237;-75
2023/01/20 19:08:42;;;;;;;4.60;2.57;;;2.50;99.90;;;;;;4936822;29;20664;-75
2023/01/20 19:11:12;;;;;;;4.30;2.60;;;2.30;99.90;;;;;;4937199;29;20576;-75
2023/01/20 19:13:39;;;;;;;4.00;2.80;;;2.30;99.90;;;;;;4937174;29;20699;-76
2023/01/20 19:16:09;;;;;;;5.17;3.13;;;2.40;99.90;;;;;;4936715;29;20711;-76
2023/01/20 19:18:36;;;;;;;4.83;3.10;;;2.40;99.90;;;;;;4937010;29;20219;-75
2023/01/20 19:21:04;;;;;;;6.03;3.73;;;2.30;99.90;;;;;;4936878;29;20617;-75
2023/01/20 19:23:31;;;;;;;6.13;3.43;;;2.20;99.90;;;;;;4936581;29;20595;-75
2023/01/20 19:26:01;;;;;;;4.80;3.00;;;2.10;99.90;;;;;;4936568;29;20235;-75
2023/01/20 19:28:28;;;;;;;4.43;3.33;;;2.10;99.90;;;;;;4922007;29;20662;-76
2023/01/20 19:30:55;;;;;;;5.43;3.30;;;2.00;99.90;;;;;;4917366;29;20214;-75
2023/01/20 19:33:23;;;;;;;5.60;3.40;;;2.00;99.90;;;;;;4917586;29;20693;-75
2023/01/20 19:35:50;;;;;;;8.23;3.87;;;2.10;99.90;;;;;;4917626;29;20241;-75
2023/01/20 19:38:17;;;;;;;7.63;3.60;;;2.00;99.90;;;;;;4917439;29;20669;-75
2023/01/20 19:40:44;;;;;;;8.27;4.53;;;2.10;99.90;;;;;;4917582;29;20239;-75
2023/01/20 19:43:10;;;;;;;6.80;3.73;;;2.00;99.90;;;;;;4917485;29;20264;-75
2023/01/20 19:45:37;;;;;;;6.53;3.83;;;2.10;99.90;;;;;;4917701;29;20234;-75
2023/01/20 19:48:04;;;;;;;7.33;4.00;;;2.00;99.90;;;;;;4917658;29;20213;-75
2023/01/20 19:50:32;;;;;;;10.63;4.27;;;2.00;99.90;;;;;;4917233;29;20666;-75
2023/01/20 19:52:59;;;;;;;7.03;4.00;;;2.10;99.90;;;;;;4917151;29;20216;-76
2023/01/20 19:55:26;;;;;;;11.30;5.17;;;2.00;99.90;;;;;;4917511;29;20607;-75
2023/01/20 19:57:53;;;;;;;13.97;5.20;;;1.80;99.90;;;;;;4917526;29;20209;-75
2023/01/20 20:00:20;;;;;;;15.20;6.27;;;1.80;99.90;;;;;;4917506;29;20214;-75
2023/01/20 20:02:47;;;;;;;14.07;7.37;;;1.80;99.90;;;;;;4917287;29;20231;-75
2023/01/20 20:05:15;;;;;;;14.30;6.90;;;1.70;99.90;;;;;;4917009;29;20589;-75
2023/01/20 20:07:43;;;;;;;13.83;6.60;;;1.70;99.90;;;;;;4917049;29;20260;-74
2023/01/20 20:10:10;;;;;;;15.47;7.87;;;1.70;99.90;;;;;;4916974;29;20217;-75
2023/01/20 20:12:37;;;;;;;14.17;6.73;;;1.60;99.90;;;;;;4917178;29;20209;-75
2023/01/20 20:15:05;;;;;;;15.07;7.20;;;1.60;99.90;;;;;;4917140;29;20213;-75
2023/01/20 20:17:32;;;;;;;16.20;7.30;;;1.60;99.90;;;;;;4917161;29;20754;-75
2023/01/20 20:19:58;;;;;;;17.20;8.17;;;1.50;99.90;;;;;;4916424;29;20308;-75
2023/01/20 20:22:25;;;;;;;17.67;8.33;;;1.60;99.90;;;;;;4916896;29;20217;-75
2023/01/20 20:24:53;;;;;;;14.07;7.03;;;1.60;99.90;;;;;;4916994;29;20948;-76
2023/01/20 20:27:20;;;;;;;15.40;6.87;;;1.60;99.90;;;;;;4917085;29;20256;-75
2023/01/20 20:29:47;;;;;;;18.23;7.20;;;1.60;99.90;;;;;;4916860;29;20216;-75
2023/01/20 20:32:15;;;;;;;17.17;7.33;;;1.50;99.90;;;;;;4916705;29;20206;-75
2023/01/20 20:34:42;;;;;;;14.33;6.37;;;1.40;99.90;;;;;;4916625;29;20289;-75
2023/01/20 20:37:09;;;;;;;13.53;6.27;;;1.40;99.90;;;;;;4916833;29;20289;-75
2023/01/20 20:39:36;;;;;;;14.50;6.53;;;1.50;99.90;;;;;;4916879;29;20702;-75
2023/01/20 20:42:04;;;;;;;12.90;6.90;;;1.50;99.90;;;;;;4916617;29;20214;-75
2023/01/20 20:44:31;;;;;;;15.07;6.00;;;1.60;99.90;;;;;;4917037;29;20234;-76
2023/01/20 20:46:57;;;;;;;12.83;6.33;;;1.70;99.90;;;;;;4916858;29;20229;-76
2023/01/20 20:49:24;;;;;;;9.43;5.00;;;1.60;99.90;;;;;;4916895;29;20213;-75
2023/01/20 20:51:51;;;;;;;9.23;5.13;;;1.70;99.90;;;;;;4916679;29;20213;-75
2023/01/20 20:54:18;;;;;;;12.83;5.50;;;1.60;99.90;;;;;;4916778;29;20209;-75
2023/01/20 20:56:45;;;;;;;9.23;5.10;;;1.60;99.90;;;;;;4917088;29;20240;-76
2023/01/20 20:59:14;;;;;;;8.70;4.37;;;1.50;99.90;;;;;;4917098;29;20288;-75
2023/01/20 21:01:41;;;;;;;11.63;6.27;;;1.50;99.90;;;;;;4917229;29;20209;-75
2023/01/20 21:04:08;;;;;;;11.70;6.43;;;1.60;99.90;;;;;;4916826;29;20236;-75
2023/01/20 21:06:34;;;;;;;10.17;5.50;;;1.50;99.90;;;;;;4916595;29;20237;-75
2023/01/20 21:09:01;;;;;;;10.67;5.10;;;1.70;99.90;;;;;;4917095;29;20205;-75
2023/01/20 21:11:28;;;;;;;7.47;3.83;;;1.70;99.90;;;;;;4916534;29;20225;-76
2023/01/20 21:13:55;;;;;;;6.93;4.30;;;1.70;99.90;;;;;;4918212;29;20225;-76
2023/01/20 21:16:25;;;;;;;8.27;5.17;;;1.60;99.90;;;;;;4917431;29;20229;-76
2023/01/20 21:18:54;;;;;;;10.53;5.33;;;1.50;99.90;;;;;;4916493;29;20578;-75
2023/01/20 21:21:22;;;;;;;7.07;4.10;;;1.50;99.90;;;;;;4917398;29;20265;-76
2023/01/20 21:23:50;;;;;;;10.60;5.83;;;1.40;99.90;;;;;;4917149;29;20597;-75
2023/01/20 21:26:16;;;;;;;9.13;4.27;;;1.50;99.90;;;;;;4916512;29;20240;-75
2023/01/20 21:28:44;;;;;;;11.40;5.77;;;1.60;99.90;;;;;;4916414;29;20244;-74
2023/01/20 21:31:13;;;;;;;15.50;6.27;;;1.70;99.90;;;;;;4917333;29;20673;-75
2023/01/20 21:33:44;;;;;;;11.20;5.10;;;1.70;99.90;;;;;;4920002;29;20221;-75
2023/01/20 21:36:11;;;;;;;10.50;6.20;;;1.70;99.90;;;;;;4920619;29;20261;-75
2023/01/20 21:38:40;;;;;;;12.53;6.57;;;1.80;99.90;;;;;;4920201;29;20278;-75
2023/01/20 21:41:08;;;;;;;9.77;6.00;;;1.70;99.90;;;;;;4919055;29;20257;-74
2023/01/20 21:46:22;;;;;;;12.27;6.00;;;1.70;99.90;;;;;;4919773;29;20237;-74
2023/01/20 21:54:20;;;;;;;12.93;7.37;;;1.80;99.90;;;;;;4919447;29;20240;-75
2023/01/20 21:56:47;;;;;;;11.30;6.70;;;1.70;99.90;;;;;;4919584;29;20230;-74
2023/01/20 21:59:14;;;;;;;11.73;6.20;;;1.60;99.90;;;;;;4919430;29;20277;-74
2023/01/20 22:01:41;;;;;;;16.13;7.03;;;1.70;99.90;;;;;;4919333;29;20214;-74
2023/01/20 22:04:09;;;;;;;13.57;6.47;;;1.70;99.90;;;;;;4919197;29;20237;-74
2023/01/20 22:06:36;;;;;;;12.13;7.20;;;1.80;99.90;;;;;;4919298;29;20240;-74
2023/01/20 22:09:03;;;;;;;13.90;7.50;;;1.80;99.90;;;;;;4919392;29;20217;-74
2023/01/20 22:11:30;;;;;;;17.10;7.73;;;1.80;99.90;;;;;;4919348;29;20217;-75
2023/01/20 22:13:57;;;;;;;12.50;6.80;;;1.70;99.90;;;;;;4919099;29;20214;-75